Time;durP1;ratioP1;P1;durP2;ratioP2;P2;SDS_P1;SDS_P2;PMS_P1;PMS_P2;Temp;Humidity;BMP_temperature;BMP_pressure;BME280_temperature;BME280_humidity;BME280_pressure;Samples;Min_cycle;Max_cycle;Signal;HPM_P1;HPM_P2
2022/03/25 00:02:10;;;;;;;0.50;0.50;;;7.90;85.20;;;;;;5013655;28;20895;-75
2022/03/25 00:04:36;;;;;;;0.40;0.30;;;7.90;85.30;;;;;;5013031;28;20385;-75
2022/03/25 00:07:02;;;;;;;0.43;0.43;;;7.90;85.20;;;;;;5012446;28;20414;-75
2022/03/25 00:09:28;;;;;;;0.70;0.50;;;7.90;85.00;;;;;;5013253;28;20413;-75
2022/03/25 00:11:53;;;;;;;0.60;0.60;;;7.80;85.20;;;;;;5012652;28;20404;-76
2022/03/25 00:14:19;;;;;;;0.40;0.30;;;7.80;85.50;;;;;;5013306;28;20392;-76
2022/03/25 00:16:45;;;;;;;0.40;0.40;;;7.80;85.40;;;;;;5013263;28;20722;-76
2022/03/25 00:19:11;;;;;;;0.40;0.20;;;7.80;85.40;;;;;;5012163;28;21052;-76
2022/03/25 00:21:37;;;;;;;0.40;0.20;;;7.70;86.30;;;;;;5011789;28;20480;-76
2022/03/25 00:24:03;;;;;;;0.40;0.20;;;7.80;85.30;;;;;;5012456;28;20464;-76
2022/03/25 00:26:29;;;;;;;1.10;1.00;;;7.80;84.80;;;;;;5013011;28;20393;-76
2022/03/25 00:28:55;;;;;;;0.57;0.57;;;7.80;85.10;;;;;;5012952;28;20409;-76
2022/03/25 00:31:21;;;;;;;1.30;1.20;;;7.70;85.50;;;;;;5011816;28;20506;-76
2022/03/25 00:33:49;;;;;;;0.80;0.80;;;7.70;84.90;;;;;;5012305;28;20499;-75
2022/03/25 00:36:17;;;;;;;0.40;0.30;;;7.70;84.60;;;;;;5012014;28;20444;-76
2022/03/25 00:38:43;;;;;;;0.50;0.50;;;7.70;85.10;;;;;;5012201;28;20523;-76
2022/03/25 00:41:12;;;;;;;0.80;0.80;;;7.70;84.20;;;;;;5012155;28;20420;-76
2022/03/25 00:43:38;;;;;;;1.03;0.70;;;7.60;85.10;;;;;;5011233;28;20842;-76
2022/03/25 00:46:04;;;;;;;0.40;0.20;;;7.50;86.20;;;;;;5012770;28;20377;-76
2022/03/25 00:48:32;;;;;;;0.45;0.25;;;7.40;86.90;;;;;;5011514;28;20475;-76
2022/03/25 00:50:58;;;;;;;0.40;0.30;;;7.20;88.10;;;;;;5012529;28;20388;-76
2022/03/25 00:53:25;;;;;;;0.40;0.30;;;7.20;88.40;;;;;;5011568;28;20405;-76
2022/03/25 00:55:52;;;;;;;0.40;0.20;;;7.20;87.90;;;;;;5011268;28;20399;-76
2022/03/25 00:58:18;;;;;;;0.60;0.60;;;7.10;88.90;;;;;;5012098;28;20484;-76
2022/03/25 01:00:45;;;;;;;0.80;0.80;;;7.10;88.70;;;;;;5010790;28;20400;-76
2022/03/25 01:03:11;;;;;;;0.50;0.50;;;7.10;89.00;;;;;;5012197;28;20377;-76
2022/03/25 01:05:37;;;;;;;1.40;1.30;;;7.00;89.10;;;;;;5011468;28;20385;-76
2022/03/25 01:08:04;;;;;;;0.40;0.40;;;6.90;89.50;;;;;;5012344;28;20396;-75
2022/03/25 01:10:31;;;;;;;0.57;0.57;;;6.80;90.40;;;;;;4996124;28;20428;-76
2022/03/25 01:12:57;;;;;;;0.68;0.65;;;6.70;91.30;;;;;;4991140;28;20446;-76
2022/03/25 01:15:23;;;;;;;0.40;0.20;;;6.60;91.60;;;;;;4992855;28;20422;-75
2022/03/25 01:17:48;;;;;;;0.40;0.30;;;6.60;91.60;;;;;;4990280;28;20497;-75
2022/03/25 01:20:14;;;;;;;0.90;0.90;;;6.50;91.50;;;;;;4992402;28;20390;-76
2022/03/25 01:22:40;;;;;;;0.40;0.30;;;6.60;91.70;;;;;;4991510;28;20390;-76
2022/03/25 01:25:08;;;;;;;0.40;0.30;;;6.50;91.90;;;;;;4992407;28;20473;-76
2022/03/25 01:27:34;;;;;;;0.40;0.40;;;6.50;92.60;;;;;;4992182;28;20772;-76
2022/03/25 01:29:59;;;;;;;0.40;0.20;;;6.40;91.90;;;;;;4991296;28;20489;-76
2022/03/25 01:32:25;;;;;;;0.40;0.30;;;6.40;92.60;;;;;;4991653;28;20445;-76
2022/03/25 01:34:51;;;;;;;0.70;0.50;;;6.30;92.60;;;;;;4990059;28;20756;-76
2022/03/25 01:37:17;;;;;;;0.40;0.30;;;6.20;93.10;;;;;;4989965;28;20394;-76
2022/03/25 01:39:43;;;;;;;0.40;0.22;;;6.30;92.80;;;;;;4992024;28;20430;-76
2022/03/25 01:42:10;;;;;;;0.40;0.25;;;6.20;93.30;;;;;;4991412;28;20413;-75
2022/03/25 01:44:37;;;;;;;1.20;0.80;;;6.20;93.60;;;;;;4992249;28;20390;-76
2022/03/25 01:47:03;;;;;;;0.70;0.50;;;6.10;93.30;;;;;;4991433;28;20410;-76
2022/03/25 01:49:29;;;;;;;0.40;0.20;;;6.10;94.00;;;;;;4991984;28;20383;-76
2022/03/25 01:52:00;;;;;;;1.00;0.97;;;6.10;94.00;;;;;;4991409;28;21000;-76
2022/03/25 01:54:31;;;;;;;0.40;0.30;;;6.10;94.10;;;;;;4992230;28;20414;-76
2022/03/25 01:57:03;;;;;;;0.40;0.30;;;6.10;94.40;;;;;;4991792;28;20398;-76
2022/03/25 01:59:30;;;;;;;0.40;0.30;;;6.00;94.50;;;;;;4991375;28;20386;-76
2022/03/25 02:01:57;;;;;;;0.40;0.30;;;5.90;95.30;;;;;;4991430;28;20453;-76
2022/03/25 02:04:24;;;;;;;0.40;0.25;;;6.00;95.00;;;;;;4990793;28;20390;-76
2022/03/25 02:06:51;;;;;;;0.40;0.40;;;5.90;94.60;;;;;;4991266;28;20397;-75
2022/03/25 02:09:17;;;;;;;0.40;0.20;;;6.00;94.40;;;;;;4992545;28;20897;-75
2022/03/25 02:11:43;;;;;;;0.70;0.70;;;5.90;94.90;;;;;;5010970;28;20727;-76
2022/03/25 02:14:09;;;;;;;0.40;0.30;;;5.90;95.60;;;;;;5010946;28;20405;-75
2022/03/25 02:16:43;;;;;;;0.40;0.30;;;5.90;94.90;;;;;;5010644;28;20483;-76
2022/03/25 02:19:11;;;;;;;0.40;0.30;;;5.80;95.20;;;;;;5011162;28;20424;-75
2022/03/25 02:21:41;;;;;;;2.10;1.00;;;5.70;95.70;;;;;;5010298;28;20384;-76
2022/03/25 02:24:09;;;;;;;0.90;0.60;;;5.80;95.90;;;;;;5010942;28;20467;-76
2022/03/25 02:26:36;;;;;;;1.00;0.80;;;5.70;96.30;;;;;;5010298;28;20388;-75
2022/03/25 02:29:04;;;;;;;0.83;0.83;;;5.60;96.60;;;;;;5009534;28;20483;-76
2022/03/25 02:31:30;;;;;;;1.00;1.00;;;5.70;96.60;;;;;;5008831;28;20396;-76
2022/03/25 02:33:58;;;;;;;0.40;0.40;;;5.80;96.20;;;;;;5009498;28;20864;-75
2022/03/25 02:36:24;;;;;;;0.40;0.40;;;5.80;95.90;;;;;;5009742;28;20860;-75
2022/03/25 02:38:50;;;;;;;0.40;0.20;;;5.90;95.00;;;;;;5011439;28;20393;-76
2022/03/25 02:41:16;;;;;;;0.40;0.30;;;5.80;94.70;;;;;;5010382;28;20400;-76
2022/03/25 02:43:41;;;;;;;0.40;0.30;;;5.70;95.70;;;;;;5009849;28;20876;-76
2022/03/25 02:46:07;;;;;;;0.40;0.30;;;5.70;95.40;;;;;;5010754;28;20380;-75
2022/03/25 02:48:34;;;;;;;0.50;0.50;;;5.80;94.90;;;;;;5013892;28;20373;-76
2022/03/25 02:51:00;;;;;;;0.88;0.70;;;5.70;94.10;;;;;;5014187;28;20916;-76
2022/03/25 02:53:27;;;;;;;0.60;0.60;;;5.90;93.60;;;;;;5013277;28;20834;-75
2022/03/25 02:55:53;;;;;;;0.40;0.30;;;5.90;94.20;;;;;;5013999;28;20393;-75
2022/03/25 02:58:19;;;;;;;0.40;0.30;;;5.90;93.90;;;;;;5014703;28;20879;-75
2022/03/25 03:00:45;;;;;;;0.80;0.80;;;5.90;94.10;;;;;;5013862;28;20381;-76
2022/03/25 03:03:11;;;;;;;0.57;0.57;;;5.90;94.10;;;;;;5013250;28;20407;-76
2022/03/25 03:05:36;;;;;;;1.30;0.70;;;5.90;94.10;;;;;;5014383;28;20400;-75
2022/03/25 03:08:02;;;;;;;2.20;1.70;;;5.90;93.90;;;;;;5013713;28;20896;-75
2022/03/25 03:10:29;;;;;;;0.63;0.63;;;5.90;94.20;;;;;;5000897;28;20406;-75
2022/03/25 03:12:54;;;;;;;0.40;0.40;;;5.90;93.30;;;;;;4994134;28;20418;-76
2022/03/25 03:15:22;;;;;;;0.40;0.40;;;5.80;93.90;;;;;;4994531;28;20420;-75
2022/03/25 03:17:49;;;;;;;0.40;0.20;;;5.90;93.40;;;;;;4995184;28;20394;-75
2022/03/25 03:20:18;;;;;;;1.80;0.80;;;5.90;93.70;;;;;;4993967;28;20390;-75
2022/03/25 03:22:45;;;;;;;0.70;0.70;;;5.90;93.80;;;;;;4995110;28;20390;-75
2022/03/25 03:25:11;;;;;;;0.40;0.30;;;5.90;93.30;;;;;;4993460;28;20828;-76
2022/03/25 03:27:37;;;;;;;0.50;0.50;;;5.90;94.40;;;;;;4994577;28;20379;-76
2022/03/25 03:30:08;;;;;;;0.73;0.73;;;5.90;93.40;;;;;;4993677;28;20473;-76
2022/03/25 03:32:35;;;;;;;0.40;0.20;;;5.80;93.10;;;;;;4994424;28;20418;-75
2022/03/25 03:35:02;;;;;;;0.80;0.70;;;5.70;93.30;;;;;;4994753;28;20741;-75
2022/03/25 03:37:28;;;;;;;0.40;0.20;;;5.70;93.70;;;;;;4993435;28;20425;-75
2022/03/25 03:39:54;;;;;;;0.40;0.20;;;5.70;93.80;;;;;;4994061;28;20395;-75
2022/03/25 03:42:20;;;;;;;0.40;0.30;;;5.80;93.60;;;;;;4993599;28;20446;-75
2022/03/25 03:44:46;;;;;;;0.57;0.57;;;5.80;93.60;;;;;;4993912;28;20395;-75
2022/03/25 03:47:12;;;;;;;0.40;0.30;;;5.80;93.20;;;;;;4993019;28;20387;-74
2022/03/25 03:49:39;;;;;;;1.20;1.10;;;5.80;93.60;;;;;;4992297;28;20883;-75
2022/03/25 03:52:05;;;;;;;0.93;0.57;;;5.80;93.90;;;;;;4994236;28;20492;-74
2022/03/25 03:54:32;;;;;;;2.08;1.98;;;5.90;94.20;;;;;;4993304;28;20390;-75
2022/03/25 03:56:58;;;;;;;0.40;0.40;;;6.00;93.00;;;;;;4993776;28;20482;-75
2022/03/25 03:59:25;;;;;;;0.40;0.20;;;6.00;93.20;;;;;;4991234;28;20473;-75
2022/03/25 04:01:50;;;;;;;0.52;0.52;;;5.90;92.70;;;;;;4994220;28;20819;-75
2022/03/25 04:04:17;;;;;;;0.60;0.60;;;5.70;93.20;;;;;;4993745;28;20398;-76
2022/03/25 04:06:43;;;;;;;0.50;0.50;;;5.70;94.60;;;;;;4993374;28;20403;-75
2022/03/25 04:09:09;;;;;;;0.40;0.20;;;5.80;94.30;;;;;;4995941;28;20418;-75
2022/03/25 04:11:35;;;;;;;1.70;0.80;;;5.70;94.40;;;;;;5012865;28;20428;-76
2022/03/25 04:14:01;;;;;;;0.40;0.30;;;5.70;94.00;;;;;;5013220;28;20414;-76
2022/03/25 04:16:29;;;;;;;0.50;0.40;;;5.90;94.50;;;;;;5012936;28;20411;-75
2022/03/25 04:18:56;;;;;;;0.40;0.30;;;5.90;93.90;;;;;;5012392;28;21454;-75
2022/03/25 04:21:21;;;;;;;0.50;0.50;;;5.90;94.20;;;;;;5012861;28;20520;-75
2022/03/25 04:23:47;;;;;;;1.30;1.20;;;5.90;94.40;;;;;;5011922;28;20483;-76
2022/03/25 04:26:13;;;;;;;0.40;0.20;;;6.00;94.10;;;;;;5012703;28;20923;-75
2022/03/25 04:28:38;;;;;;;0.60;0.60;;;5.90;93.30;;;;;;5012944;28;20714;-75
2022/03/25 04:31:04;;;;;;;1.00;0.90;;;5.90;94.30;;;;;;5012218;28;20385;-75
2022/03/25 04:33:32;;;;;;;0.50;0.50;;;5.80;94.40;;;;;;5013147;28;20873;-75
2022/03/25 04:35:58;;;;;;;0.40;0.20;;;5.80;95.10;;;;;;5012331;28;20396;-75
2022/03/25 04:38:23;;;;;;;1.70;1.10;;;5.60;94.90;;;;;;5013599;28;20403;-75
2022/03/25 04:40:49;;;;;;;0.50;0.50;;;5.60;94.80;;;;;;5012716;28;20495;-75
2022/03/25 04:43:15;;;;;;;0.40;0.40;;;5.60;94.90;;;;;;5012412;28;20830;-76
2022/03/25 04:45:41;;;;;;;0.40;0.30;;;5.50;95.40;;;;;;5012984;28;20737;-75
2022/03/25 04:48:10;;;;;;;0.40;0.40;;;5.30;96.50;;;;;;5012434;28;20416;-75
2022/03/25 04:50:39;;;;;;;0.80;0.80;;;5.20;97.80;;;;;;5013055;28;20397;-74
2022/03/25 04:53:05;;;;;;;0.50;0.50;;;5.10;98.30;;;;;;5010746;28;20448;-75
2022/03/25 04:55:31;;;;;;;0.80;0.80;;;5.10;98.10;;;;;;5011433;28;20472;-75
2022/03/25 04:57:57;;;;;;;0.98;0.93;;;5.00;98.90;;;;;;5012840;28;20373;-75
2022/03/25 05:00:23;;;;;;;0.80;0.80;;;4.90;98.90;;;;;;5011618;28;20399;-75
2022/03/25 05:02:48;;;;;;;0.40;0.20;;;4.80;99.50;;;;;;5012105;28;20396;-74
2022/03/25 05:05:15;;;;;;;0.70;0.70;;;4.80;99.70;;;;;;5012049;28;20388;-75
2022/03/25 05:07:42;;;;;;;0.40;0.40;;;4.90;99.90;;;;;;5012563;28;20389;-74
2022/03/25 05:10:10;;;;;;;0.50;0.50;;;4.80;99.90;;;;;;5000296;28;20415;-75
2022/03/25 05:12:36;;;;;;;0.43;0.38;;;4.70;99.90;;;;;;4990806;28;20501;-75
2022/03/25 05:15:02;;;;;;;0.50;0.50;;;4.70;99.90;;;;;;4992905;28;20418;-74
2022/03/25 05:17:28;;;;;;;1.20;1.10;;;4.80;99.90;;;;;;4992132;28;20386;-75
2022/03/25 05:19:54;;;;;;;0.40;0.30;;;5.00;99.60;;;;;;4992704;28;20386;-75
2022/03/25 05:22:20;;;;;;;0.40;0.20;;;5.00;99.30;;;;;;4992362;28;20477;-75
2022/03/25 05:24:46;;;;;;;0.40;0.30;;;5.00;99.80;;;;;;4992313;28;20841;-75
2022/03/25 05:27:11;;;;;;;0.40;0.30;;;4.80;99.90;;;;;;4992484;28;20780;-75
2022/03/25 05:29:37;;;;;;;0.40;0.20;;;4.90;99.90;;;;;;4991653;28;20379;-76
2022/03/25 05:32:03;;;;;;;0.40;0.20;;;4.90;99.40;;;;;;5004578;28;20855;-76
2022/03/25 05:34:29;;;;;;;0.40;0.30;;;5.00;99.60;;;;;;5000336;28;20434;-77
2022/03/25 05:36:54;;;;;;;1.50;0.80;;;5.20;99.40;;;;;;5007771;28;20411;-75
2022/03/25 05:39:20;;;;;;;0.80;0.50;;;5.10;98.50;;;;;;5004632;28;20429;-75
2022/03/25 05:41:46;;;;;;;0.40;0.20;;;5.20;98.20;;;;;;5005069;28;20405;-75
2022/03/25 05:44:12;;;;;;;0.40;0.30;;;5.00;98.60;;;;;;5007541;28;20996;-76
2022/03/25 05:46:38;;;;;;;0.40;0.30;;;5.10;98.50;;;;;;5006525;28;20462;-76
2022/03/25 05:49:04;;;;;;;0.80;0.80;;;5.10;98.70;;;;;;5010853;28;20869;-76
2022/03/25 05:51:31;;;;;;;2.60;1.10;;;5.20;98.40;;;;;;4997399;28;20405;-75
2022/03/25 05:53:56;;;;;;;1.00;1.00;;;5.20;98.60;;;;;;5012728;28;20478;-75
2022/03/25 05:56:22;;;;;;;0.80;0.70;;;5.30;98.60;;;;;;5031788;28;20395;-76
2022/03/25 05:58:48;;;;;;;0.70;0.70;;;5.40;97.40;;;;;;5030671;28;20765;-76
2022/03/25 06:01:14;;;;;;;0.43;0.35;;;5.40;97.50;;;;;;5031316;28;20418;-75
2022/03/25 06:03:40;;;;;;;0.40;0.30;;;5.50;97.20;;;;;;5031076;28;20387;-75
2022/03/25 06:06:06;;;;;;;1.05;1.05;;;5.50;96.80;;;;;;5030061;28;20889;-76
2022/03/25 06:08:33;;;;;;;0.40;0.23;;;5.40;96.70;;;;;;5014412;28;20903;-75
2022/03/25 06:10:59;;;;;;;0.40;0.30;;;5.50;96.90;;;;;;5010260;28;20425;-76
2022/03/25 06:13:30;;;;;;;1.00;0.70;;;5.50;97.70;;;;;;5019817;28;20421;-75
2022/03/25 06:15:56;;;;;;;0.90;0.90;;;5.60;96.70;;;;;;5030803;28;20453;-76
2022/03/25 06:18:22;;;;;;;0.40;0.20;;;5.70;96.00;;;;;;5030780;28;20394;-75
2022/03/25 06:20:48;;;;;;;1.40;1.00;;;5.70;96.40;;;;;;5021848;28;20463;-75
2022/03/25 06:23:14;;;;;;;0.40;0.20;;;5.80;95.40;;;;;;5007134;28;20400;-75
2022/03/25 06:25:41;;;;;;;1.10;0.60;;;5.90;95.50;;;;;;5013359;28;20379;-75
2022/03/25 06:28:07;;;;;;;0.60;0.50;;;6.00;95.40;;;;;;5030322;28;20380;-77
2022/03/25 06:30:39;;;;;;;0.93;0.93;;;6.00;95.70;;;;;;5030899;28;20716;-75
2022/03/25 06:33:09;;;;;;;0.40;0.20;;;6.00;95.80;;;;;;5030313;28;20419;-75
2022/03/25 06:35:36;;;;;;;0.40;0.20;;;6.00;95.80;;;;;;5029837;28;20387;-75
2022/03/25 06:38:03;;;;;;;0.50;0.50;;;6.10;95.30;;;;;;5030061;28;20423;-75
2022/03/25 06:40:29;;;;;;;1.00;1.00;;;6.20;94.40;;;;;;5029701;28;20893;-74
2022/03/25 06:42:57;;;;;;;2.20;1.00;;;6.30;94.60;;;;;;5031014;28;20391;-74
2022/03/25 06:45:24;;;;;;;0.70;0.70;;;6.50;95.20;;;;;;5028556;28;20402;-74
2022/03/25 06:47:50;;;;;;;0.40;0.30;;;6.60;94.80;;;;;;5030507;28;20395;-74
2022/03/25 06:50:18;;;;;;;0.70;0.70;;;6.70;94.60;;;;;;5030396;28;20409;-74
2022/03/25 06:52:45;;;;;;;0.40;0.30;;;6.70;94.30;;;;;;5029555;28;20403;-75
2022/03/25 06:55:12;;;;;;;0.40;0.20;;;6.80;93.70;;;;;;5030481;28;20393;-74
2022/03/25 06:57:38;;;;;;;0.45;0.45;;;6.90;93.00;;;;;;5029543;28;20403;-74
2022/03/25 07:00:05;;;;;;;1.05;1.00;;;6.90;92.60;;;;;;5030719;28;20812;-74
2022/03/25 07:02:31;;;;;;;0.40;0.30;;;7.00;92.70;;;;;;5030117;28;20441;-74
2022/03/25 07:04:57;;;;;;;1.20;0.80;;;7.20;92.00;;;;;;5030759;28;20387;-74
2022/03/25 07:07:26;;;;;;;0.60;0.60;;;7.20;91.70;;;;;;5030118;28;20402;-73
2022/03/25 07:09:54;;;;;;;0.40;0.20;;;7.30;91.70;;;;;;5020857;28;21037;-74
2022/03/25 07:12:20;;;;;;;1.50;1.40;;;7.40;91.80;;;;;;5010859;28;20415;-74
2022/03/25 07:14:45;;;;;;;0.80;0.70;;;7.50;92.30;;;;;;5009553;28;20753;-74
2022/03/25 07:17:11;;;;;;;0.70;0.70;;;7.50;91.80;;;;;;5010630;28;20395;-74
2022/03/25 07:19:37;;;;;;;0.40;0.30;;;7.60;90.80;;;;;;5010127;28;20737;-75
2022/03/25 07:22:04;;;;;;;1.20;1.20;;;7.80;88.60;;;;;;5010243;28;20471;-74
2022/03/25 07:24:30;;;;;;;0.40;0.20;;;7.90;88.40;;;;;;5010661;28;20426;-74
2022/03/25 07:26:56;;;;;;;0.77;0.77;;;8.00;90.60;;;;;;5008550;28;20396;-74
2022/03/25 07:29:22;;;;;;;2.50;1.00;;;8.10;90.30;;;;;;5010313;28;20741;-74
2022/03/25 07:31:48;;;;;;;1.10;0.80;;;8.20;90.90;;;;;;5008630;28;20406;-74
2022/03/25 07:34:14;;;;;;;0.60;0.60;;;8.30;88.20;;;;;;5011648;28;20491;-73
2022/03/25 07:36:40;;;;;;;0.60;0.60;;;8.50;87.90;;;;;;5012843;28;20401;-74
2022/03/25 07:39:06;;;;;;;0.70;0.70;;;8.60;87.20;;;;;;5013474;28;20880;-74
2022/03/25 07:41:31;;;;;;;0.40;0.20;;;8.70;85.90;;;;;;5013783;28;20385;-74
2022/03/25 07:43:57;;;;;;;0.40;0.30;;;8.90;86.00;;;;;;5013074;28;20420;-74
2022/03/25 07:46:23;;;;;;;0.60;0.60;;;9.10;83.50;;;;;;5014111;28;20382;-74
2022/03/25 07:48:50;;;;;;;0.70;0.70;;;9.30;80.90;;;;;;5014120;28;20964;-75
2022/03/25 07:51:16;;;;;;;0.57;0.57;;;9.50;78.00;;;;;;5012330;28;20403;-74
2022/03/25 07:53:41;;;;;;;0.40;0.30;;;9.60;77.70;;;;;;5013969;28;20412;-74
2022/03/25 07:56:07;;;;;;;1.00;0.80;;;9.70;76.30;;;;;;5013099;28;20467;-75
2022/03/25 07:58:33;;;;;;;2.80;1.60;;;9.80;76.30;;;;;;5013941;28;20385;-74
2022/03/25 08:00:59;;;;;;;1.27;0.93;;;9.90;75.90;;;;;;5013405;28;20741;-74
2022/03/25 08:03:25;;;;;;;1.40;1.40;;;10.00;73.90;;;;;;5012567;28;21144;-74
2022/03/25 08:05:52;;;;;;;4.90;1.40;;;10.10;73.60;;;;;;5013571;28;20391;-74
2022/03/25 08:08:22;;;;;;;0.70;0.70;;;10.20;73.20;;;;;;5012911;28;20404;-74
2022/03/25 08:10:54;;;;;;;0.40;0.30;;;10.30;73.70;;;;;;4997929;28;20427;-75
2022/03/25 08:13:20;;;;;;;0.40;0.20;;;10.50;72.60;;;;;;4992860;28;20902;-73
2022/03/25 08:15:46;;;;;;;0.90;0.90;;;10.50;69.10;;;;;;4993925;28;20444;-74
2022/03/25 08:18:13;;;;;;;0.40;0.30;;;10.60;68.30;;;;;;4993549;28;20717;-74
2022/03/25 08:20:41;;;;;;;0.50;0.40;;;10.60;67.80;;;;;;4993025;28;20409;-74
2022/03/25 08:23:14;;;;;;;1.00;1.00;;;10.60;66.90;;;;;;4993479;28;20534;-74
2022/03/25 08:28:25;;;;;;;4.20;1.90;;;10.90;66.40;;;;;;4992893;28;20386;-75
2022/03/25 08:30:51;;;;;;;0.70;0.70;;;11.00;65.60;;;;;;4993561;28;20433;-75
2022/03/25 08:33:18;;;;;;;1.50;1.50;;;11.00;65.80;;;;;;4993785;28;20457;-74
2022/03/25 08:35:44;;;;;;;0.50;0.40;;;11.10;65.60;;;;;;4993012;28;20422;-75
2022/03/25 08:38:11;;;;;;;2.00;1.90;;;11.20;65.30;;;;;;4993454;28;20402;-75
2022/03/25 08:40:38;;;;;;;1.70;1.60;;;11.30;65.00;;;;;;4991637;28;20394;-75
2022/03/25 08:43:05;;;;;;;1.90;1.40;;;11.30;63.40;;;;;;4992225;28;20398;-74
2022/03/25 08:45:32;;;;;;;0.90;0.88;;;11.40;63.80;;;;;;4992986;28;20379;-74
2022/03/25 08:47:58;;;;;;;1.10;0.90;;;11.50;63.60;;;;;;4992469;28;20394;-74
2022/03/25 08:50:24;;;;;;;1.70;1.60;;;11.60;63.10;;;;;;4993246;28;20386;-73
2022/03/25 08:52:52;;;;;;;0.70;0.70;;;11.60;63.20;;;;;;4992308;28;20461;-73
2022/03/25 08:55:20;;;;;;;2.20;2.00;;;11.70;62.80;;;;;;4993249;28;20449;-73
2022/03/25 08:57:47;;;;;;;1.45;1.35;;;11.70;62.90;;;;;;4992085;28;20393;-73
2022/03/25 09:00:15;;;;;;;2.20;0.60;;;11.80;62.30;;;;;;4993160;28;20445;-74
2022/03/25 09:02:43;;;;;;;1.92;1.83;;;11.90;63.20;;;;;;4992970;28;20493;-74
2022/03/25 09:05:10;;;;;;;1.50;1.30;;;11.80;62.90;;;;;;4991392;28;20406;-75
2022/03/25 09:07:37;;;;;;;0.80;0.80;;;11.80;64.10;;;;;;4992956;28;20433;-73
2022/03/25 09:10:07;;;;;;;0.80;0.80;;;12.00;63.60;;;;;;5001347;28;20405;-74
2022/03/25 09:12:34;;;;;;;1.73;1.60;;;12.00;62.90;;;;;;5011989;28;20389;-73
2022/03/25 09:15:00;;;;;;;0.40;0.20;;;12.10;62.80;;;;;;5011539;28;20451;-75
2022/03/25 09:17:26;;;;;;;0.40;0.30;;;12.10;63.10;;;;;;5012395;28;20381;-74
2022/03/25 09:19:54;;;;;;;2.50;1.20;;;12.30;62.90;;;;;;5012217;28;20463;-74
2022/03/25 09:22:20;;;;;;;0.60;0.45;;;12.30;62.40;;;;;;5012403;28;20510;-74
2022/03/25 09:24:46;;;;;;;1.00;1.00;;;12.40;62.20;;;;;;5012173;28;20893;-74
2022/03/25 09:27:12;;;;;;;1.13;1.13;;;12.50;61.20;;;;;;5011337;28;20385;-75
2022/03/25 09:29:38;;;;;;;0.70;0.70;;;12.50;62.00;;;;;;5012294;28;20393;-74
2022/03/25 09:32:05;;;;;;;1.42;1.33;;;12.60;61.70;;;;;;5011160;28;20393;-75
2022/03/25 09:37:15;;;;;;;1.85;1.70;;;12.80;61.30;;;;;;5011180;28;20415;-74
2022/03/25 09:39:41;;;;;;;1.20;1.10;;;12.80;60.80;;;;;;5011905;28;20385;-75
2022/03/25 09:42:08;;;;;;;0.73;0.65;;;12.90;61.90;;;;;;5011470;28;20392;-75
2022/03/25 09:44:34;;;;;;;6.70;1.00;;;13.00;62.00;;;;;;5011825;28;20495;-74
2022/03/25 09:47:03;;;;;;;1.75;1.65;;;13.00;60.80;;;;;;5011777;28;20395;-73
2022/03/25 09:49:30;;;;;;;2.65;1.35;;;13.00;61.00;;;;;;5010924;28;20381;-75
2022/03/25 09:51:56;;;;;;;0.40;0.20;;;12.90;61.20;;;;;;5011803;28;20395;-75
2022/03/25 09:54:22;;;;;;;0.40;0.20;;;13.10;61.90;;;;;;5010821;28;20431;-74
2022/03/25 09:56:48;;;;;;;0.40;0.20;;;13.20;61.80;;;;;;5011023;28;20809;-75
2022/03/25 09:59:17;;;;;;;0.47;0.47;;;13.20;61.30;;;;;;5011592;28;20384;-74
2022/03/25 10:01:43;;;;;;;2.60;1.90;;;13.20;60.20;;;;;;5011312;28;20411;-74
2022/03/25 10:04:29;;;;;;;0.40;0.30;;;13.30;60.30;;;;;;5011050;28;20753;-75
2022/03/25 10:06:55;;;;;;;4.60;1.70;;;13.30;61.20;;;;;;5011357;28;20392;-74
2022/03/25 10:09:22;;;;;;;0.40;0.40;;;13.50;60.40;;;;;;5006786;28;20416;-75
2022/03/25 10:11:48;;;;;;;1.30;1.20;;;13.60;60.70;;;;;;4991482;28;20473;-74
2022/03/25 10:14:24;;;;;;;1.70;1.50;;;13.50;60.40;;;;;;4991370;28;20497;-75
2022/03/25 10:16:52;;;;;;;2.40;1.60;;;13.50;59.80;;;;;;4991893;28;20394;-73
2022/03/25 10:19:21;;;;;;;0.60;0.50;;;13.80;59.90;;;;;;4990758;28;21592;-73
2022/03/25 10:22:00;;;;;;;1.70;1.20;;;13.70;60.00;;;;;;4991191;28;20418;-74
2022/03/25 10:24:40;;;;;;;0.90;0.90;;;13.70;59.80;;;;;;4991566;28;20760;-74
2022/03/25 10:27:07;;;;;;;0.40;0.30;;;14.00;60.40;;;;;;4991589;28;20383;-73
2022/03/25 10:29:35;;;;;;;1.33;1.13;;;14.00;59.00;;;;;;4991393;28;20731;-74
2022/03/25 10:32:13;;;;;;;1.20;1.10;;;13.90;59.70;;;;;;4991535;28;20886;-72
2022/03/25 10:34:41;;;;;;;0.85;0.82;;;14.10;59.60;;;;;;4990475;28;20501;-75
2022/03/25 10:37:11;;;;;;;1.00;0.70;;;14.30;59.10;;;;;;4991463;28;20398;-73
2022/03/25 10:39:38;;;;;;;0.70;0.70;;;14.40;58.10;;;;;;4991266;28;20511;-75
2022/03/25 10:42:07;;;;;;;1.40;0.90;;;14.60;58.40;;;;;;4991064;28;20426;-75
2022/03/25 10:44:35;;;;;;;1.65;1.55;;;14.70;58.50;;;;;;4991265;28;20481;-73
2022/03/25 10:47:21;;;;;;;0.53;0.53;;;14.60;58.00;;;;;;4990640;28;20386;-74
2022/03/25 10:49:48;;;;;;;1.80;1.30;;;14.40;58.20;;;;;;4990580;28;20382;-75
2022/03/25 10:52:41;;;;;;;1.50;1.40;;;14.70;58.50;;;;;;4991377;28;20383;-73
2022/03/25 10:55:21;;;;;;;1.10;1.10;;;14.70;58.50;;;;;;4987985;28;20410;-73
2022/03/25 10:57:48;;;;;;;2.50;1.30;;;14.70;58.30;;;;;;4991076;28;20425;-75
2022/03/25 11:00:14;;;;;;;2.80;2.60;;;14.90;58.30;;;;;;4990867;28;20506;-75
2022/03/25 11:02:42;;;;;;;0.40;0.30;;;15.10;58.40;;;;;;4991288;28;20740;-74
2022/03/25 11:05:11;;;;;;;0.68;0.68;;;15.40;58.30;;;;;;4989896;28;20387;-73
2022/03/25 11:07:40;;;;;;;0.40;0.40;;;15.50;57.70;;;;;;4991145;28;20907;-75
2022/03/25 11:10:06;;;;;;;0.85;0.85;;;15.70;57.30;;;;;;5003971;28;20765;-73
2022/03/25 11:12:33;;;;;;;1.75;1.48;;;15.80;57.50;;;;;;5013498;28;20400;-74
2022/03/25 11:15:00;;;;;;;3.20;2.30;;;15.80;56.90;;;;;;5014103;28;20384;-75
2022/03/25 11:17:27;;;;;;;1.60;1.50;;;16.00;56.40;;;;;;5014699;28;20753;-72
2022/03/25 11:19:56;;;;;;;0.52;0.52;;;16.20;55.70;;;;;;5014335;28;20417;-72
2022/03/25 11:22:23;;;;;;;0.70;0.70;;;16.00;55.60;;;;;;5013666;28;20463;-74
2022/03/25 11:24:55;;;;;;;0.80;0.70;;;16.10;56.20;;;;;;5014194;28;20381;-73
2022/03/25 11:27:24;;;;;;;0.50;0.40;;;16.20;56.80;;;;;;5013662;28;20384;-73
2022/03/25 11:29:53;;;;;;;1.20;1.10;;;16.50;56.30;;;;;;5014027;28;20753;-74
2022/03/25 11:32:19;;;;;;;0.40;0.40;;;16.90;56.70;;;;;;5013498;28;20392;-73
2022/03/25 11:34:54;;;;;;;5.40;2.90;;;16.80;55.40;;;;;;5014115;28;20400;-74
2022/03/25 11:37:26;;;;;;;0.50;0.50;;;17.30;55.90;;;;;;5013291;28;20392;-72
2022/03/25 11:40:18;;;;;;;2.00;1.67;;;18.20;53.50;;;;;;5013859;28;20889;-69
2022/03/25 11:42:45;;;;;;;6.13;2.30;;;18.50;52.30;;;;;;5013965;28;20400;-71
2022/03/25 11:45:31;;;;;;;1.00;1.00;;;19.00;51.60;;;;;;5009404;28;20404;-72
2022/03/25 11:47:59;;;;;;;1.30;1.20;;;19.20;51.60;;;;;;5025978;28;20418;-70
2022/03/25 11:50:28;;;;;;;0.77;0.77;;;19.60;49.80;;;;;;5020353;28;20438;-71
2022/03/25 11:52:54;;;;;;;0.80;0.80;;;19.30;49.00;;;;;;5018015;28;20408;-71
2022/03/25 11:55:21;;;;;;;1.40;1.00;;;20.60;48.60;;;;;;5012865;28;20381;-73
2022/03/25 11:57:47;;;;;;;0.60;0.50;;;20.30;48.10;;;;;;5013820;28;20391;-70
2022/03/25 12:00:22;;;;;;;0.40;0.40;;;20.50;47.90;;;;;;5012773;28;20396;-70
2022/03/25 12:03:05;;;;;;;1.10;1.10;;;20.10;47.60;;;;;;5012668;28;20875;-69
2022/03/25 12:05:32;;;;;;;0.40;0.40;;;20.70;46.90;;;;;;5032296;28;20445;-70
2022/03/25 12:08:29;;;;;;;0.50;0.50;;;20.40;47.40;;;;;;5020320;28;20397;-71
2022/03/25 12:10:56;;;;;;;1.55;1.45;;;20.70;46.80;;;;;;5012953;28;20412;-71
2022/03/25 12:13:23;;;;;;;1.30;1.20;;;20.70;48.10;;;;;;5013362;28;20495;-69
2022/03/25 12:15:54;;;;;;;1.48;1.38;;;20.80;45.30;;;;;;5012519;28;20381;-69
2022/03/25 12:18:46;;;;;;;7.00;1.40;;;20.50;45.30;;;;;;5013194;28;20838;-69
2022/03/25 12:21:21;;;;;;;1.57;1.47;;;21.00;45.20;;;;;;4992886;28;20386;-69
2022/03/25 12:23:58;;;;;;;0.50;0.40;;;20.30;45.30;;;;;;4992672;28;20395;-71
2022/03/25 12:26:33;;;;;;;0.70;0.70;;;21.40;44.60;;;;;;4993290;28;20391;-70
2022/03/25 12:28:59;;;;;;;0.47;0.37;;;20.80;43.50;;;;;;4992995;28;20883;-71
2022/03/25 12:31:26;;;;;;;3.00;1.85;;;20.60;43.80;;;;;;4993575;28;20398;-71
2022/03/25 12:34:02;;;;;;;1.60;1.40;;;21.00;43.60;;;;;;4992668;28;20417;-71
2022/03/25 12:36:42;;;;;;;0.60;0.60;;;21.70;41.90;;;;;;4993281;28;20541;-70
2022/03/25 12:39:15;;;;;;;1.20;1.10;;;20.90;41.80;;;;;;4993082;28;20441;-70
2022/03/25 12:41:49;;;;;;;0.63;0.63;;;21.30;42.30;;;;;;5001873;28;21008;-71
2022/03/25 12:44:15;;;;;;;1.63;1.52;;;21.30;42.20;;;;;;5012017;28;20416;-71
2022/03/25 12:46:41;;;;;;;0.40;0.40;;;22.00;40.20;;;;;;5012848;28;20379;-70
2022/03/25 12:49:11;;;;;;;1.20;0.80;;;22.40;39.80;;;;;;5012163;28;20803;-69
2022/03/25 12:51:37;;;;;;;1.80;1.70;;;21.00;39.10;;;;;;5013018;28;20381;-69
2022/03/25 12:54:15;;;;;;;4.50;3.10;;;21.00;40.10;;;;;;5011770;28;20412;-71
2022/03/25 12:56:41;;;;;;;1.13;1.10;;;20.80;40.50;;;;;;5026075;28;20383;-69
2022/03/25 12:59:06;;;;;;;0.50;0.50;;;20.70;39.60;;;;;;5031949;28;20874;-69
2022/03/25 13:01:32;;;;;;;1.20;1.10;;;20.30;39.90;;;;;;5032316;28;20386;-69